sensor_id;sensor_type;location;lat;lon;timestamp;P1;durP1;ratioP1;P2;durP2;ratioP2
28335;SDS011;15592;53.656;7.276;2022-12-10T00:04:16;70.53;;;31.75;;
28335;SDS011;15592;53.656;7.276;2022-12-10T00:06:43;73.82;;;31.08;;
28335;SDS011;15592;53.656;7.276;2022-12-10T00:09:12;68.55;;;31.02;;
28335;SDS011;15592;53.656;7.276;2022-12-10T00:11:40;70.93;;;30.55;;
28335;SDS011;15592;53.656;7.276;2022-12-10T00:14:07;72.13;;;32.45;;
28335;SDS011;15592;53.656;7.276;2022-12-10T00:16:33;71.63;;;31.60;;
28335;SDS011;15592;53.656;7.276;2022-12-10T00:18:59;70.25;;;31.90;;
28335;SDS011;15592;53.656;7.276;2022-12-10T00:21:27;68.70;;;30.60;;
28335;SDS011;15592;53.656;7.276;2022-12-10T00:23:54;74.72;;;32.25;;
28335;SDS011;15592;53.656;7.276;2022-12-10T00:26:22;67.00;;;28.83;;
28335;SDS011;15592;53.656;7.276;2022-12-10T00:28:49;69.20;;;29.83;;
28335;SDS011;15592;53.656;7.276;2022-12-10T00:31:18;66.10;;;30.13;;
28335;SDS011;15592;53.656;7.276;2022-12-10T00:33:48;67.82;;;30.30;;
28335;SDS011;15592;53.656;7.276;2022-12-10T00:36:15;67.90;;;31.30;;
28335;SDS011;15592;53.656;7.276;2022-12-10T00:38:47;70.05;;;30.38;;
28335;SDS011;15592;53.656;7.276;2022-12-10T00:41:13;62.20;;;28.15;;
28335;SDS011;15592;53.656;7.276;2022-12-10T00:43:40;61.17;;;28.98;;
28335;SDS011;15592;53.656;7.276;2022-12-10T00:46:06;67.30;;;29.40;;
28335;SDS011;15592;53.656;7.276;2022-12-10T00:48:32;69.78;;;28.65;;
28335;SDS011;15592;53.656;7.276;2022-12-10T00:50:59;63.67;;;28.48;;
28335;SDS011;15592;53.656;7.276;2022-12-10T00:53:41;64.57;;;29.67;;
28335;SDS011;15592;53.656;7.276;2022-12-10T00:56:09;72.38;;;32.03;;
28335;SDS011;15592;53.656;7.276;2022-12-10T00:58:36;78.47;;;31.67;;
28335;SDS011;15592;53.656;7.276;2022-12-10T01:01:06;78.63;;;34.17;;
28335;SDS011;15592;53.656;7.276;2022-12-10T01:03:43;77.85;;;32.97;;
28335;SDS011;15592;53.656;7.276;2022-12-10T01:06:14;77.72;;;34.08;;
28335;SDS011;15592;53.656;7.276;2022-12-10T01:09:01;81.43;;;33.70;;
28335;SDS011;15592;53.656;7.276;2022-12-10T01:11:32;79.93;;;33.75;;
28335;SDS011;15592;53.656;7.276;2022-12-10T01:14:02;75.05;;;33.47;;
28335;SDS011;15592;53.656;7.276;2022-12-10T01:16:28;76.30;;;34.25;;
28335;SDS011;15592;53.656;7.276;2022-12-10T01:18:54;83.75;;;35.75;;
28335;SDS011;15592;53.656;7.276;2022-12-10T01:21:21;81.63;;;34.22;;
28335;SDS011;15592;53.656;7.276;2022-12-10T01:23:48;80.57;;;33.55;;
28335;SDS011;15592;53.656;7.276;2022-12-10T01:26:17;86.60;;;36.55;;
28335;SDS011;15592;53.656;7.276;2022-12-10T01:28:47;79.30;;;34.28;;
28335;SDS011;15592;53.656;7.276;2022-12-10T01:31:14;86.00;;;34.78;;
28335;SDS011;15592;53.656;7.276;2022-12-10T01:33:40;75.45;;;33.97;;
28335;SDS011;15592;53.656;7.276;2022-12-10T01:36:07;77.70;;;33.63;;
28335;SDS011;15592;53.656;7.276;2022-12-10T01:38:35;81.03;;;35.03;;
28335;SDS011;15592;53.656;7.276;2022-12-10T01:41:01;78.88;;;34.63;;
28335;SDS011;15592;53.656;7.276;2022-12-10T01:43:27;82.15;;;35.63;;
28335;SDS011;15592;53.656;7.276;2022-12-10T01:46:12;80.97;;;33.42;;
28335;SDS011;15592;53.656;7.276;2022-12-10T01:48:38;86.40;;;36.78;;
28335;SDS011;15592;53.656;7.276;2022-12-10T01:51:04;87.53;;;37.65;;
28335;SDS011;15592;53.656;7.276;2022-12-10T01:53:30;88.13;;;38.17;;
28335;SDS011;15592;53.656;7.276;2022-12-10T01:55:56;83.63;;;36.75;;
28335;SDS011;15592;53.656;7.276;2022-12-10T01:58:21;84.82;;;36.60;;
28335;SDS011;15592;53.656;7.276;2022-12-10T02:00:51;91.65;;;37.58;;
28335;SDS011;15592;53.656;7.276;2022-12-10T02:06:53;82.22;;;37.20;;
28335;SDS011;15592;53.656;7.276;2022-12-10T02:09:04;86.72;;;36.90;;
28335;SDS011;15592;53.656;7.276;2022-12-10T02:11:56;96.32;;;39.53;;
28335;SDS011;15592;53.656;7.276;2022-12-10T02:17:18;93.85;;;38.78;;
28335;SDS011;15592;53.656;7.276;2022-12-10T02:19:54;87.93;;;38.50;;
28335;SDS011;15592;53.656;7.276;2022-12-10T02:22:23;90.85;;;39.42;;
28335;SDS011;15592;53.656;7.276;2022-12-10T02:24:53;88.00;;;38.65;;
28335;SDS011;15592;53.656;7.276;2022-12-10T02:27:29;95.75;;;39.03;;
28335;SDS011;15592;53.656;7.276;2022-12-10T02:30:02;95.05;;;41.05;;
28335;SDS011;15592;53.656;7.276;2022-12-10T02:32:31;95.25;;;41.25;;
28335;SDS011;15592;53.656;7.276;2022-12-10T02:35:02;88.95;;;39.90;;
28335;SDS011;15592;53.656;7.276;2022-12-10T02:37:55;99.93;;;42.60;;
28335;SDS011;15592;53.656;7.276;2022-12-10T02:40:23;96.78;;;41.88;;
28335;SDS011;15592;53.656;7.276;2022-12-10T02:42:52;97.78;;;40.03;;
28335;SDS011;15592;53.656;7.276;2022-12-10T02:45:18;99.35;;;40.58;;
28335;SDS011;15592;53.656;7.276;2022-12-10T02:47:46;96.25;;;41.20;;
28335;SDS011;15592;53.656;7.276;2022-12-10T02:50:13;96.03;;;40.45;;
28335;SDS011;15592;53.656;7.276;2022-12-10T02:52:40;93.38;;;40.38;;
28335;SDS011;15592;53.656;7.276;2022-12-10T02:55:08;90.05;;;39.78;;
28335;SDS011;15592;53.656;7.276;2022-12-10T02:57:38;94.05;;;42.25;;
28335;SDS011;15592;53.656;7.276;2022-12-10T03:10:48;99.53;;;40.80;;
28335;SDS011;15592;53.656;7.276;2022-12-10T03:13:29;99.93;;;42.13;;
28335;SDS011;15592;53.656;7.276;2022-12-10T03:16:05;100.82;;;42.38;;
28335;SDS011;15592;53.656;7.276;2022-12-10T03:18:32;98.93;;;42.35;;
28335;SDS011;15592;53.656;7.276;2022-12-10T03:21:01;94.80;;;39.60;;
28335;SDS011;15592;53.656;7.276;2022-12-10T03:23:30;92.00;;;39.95;;
28335;SDS011;15592;53.656;7.276;2022-12-10T03:25:59;99.60;;;43.15;;
28335;SDS011;15592;53.656;7.276;2022-12-10T03:28:26;100.72;;;43.75;;
28335;SDS011;15592;53.656;7.276;2022-12-10T03:30:59;102.43;;;44.17;;
28335;SDS011;15592;53.656;7.276;2022-12-10T03:33:26;108.72;;;45.65;;
28335;SDS011;15592;53.656;7.276;2022-12-10T03:35:52;98.25;;;41.83;;
28335;SDS011;15592;53.656;7.276;2022-12-10T03:38:17;97.88;;;42.42;;
28335;SDS011;15592;53.656;7.276;2022-12-10T03:40:43;101.75;;;43.97;;
28335;SDS011;15592;53.656;7.276;2022-12-10T03:43:11;98.35;;;41.70;;
28335;SDS011;15592;53.656;7.276;2022-12-10T03:45:38;100.75;;;43.78;;
28335;SDS011;15592;53.656;7.276;2022-12-10T03:48:05;103.40;;;43.22;;
28335;SDS011;15592;53.656;7.276;2022-12-10T03:50:31;97.15;;;41.67;;
28335;SDS011;15592;53.656;7.276;2022-12-10T03:52:56;97.05;;;42.38;;
28335;SDS011;15592;53.656;7.276;2022-12-10T03:55:22;95.85;;;42.80;;
28335;SDS011;15592;53.656;7.276;2022-12-10T03:57:48;107.18;;;42.97;;
28335;SDS011;15592;53.656;7.276;2022-12-10T04:00:13;107.43;;;43.92;;
28335;SDS011;15592;53.656;7.276;2022-12-10T04:02:39;99.93;;;42.60;;
28335;SDS011;15592;53.656;7.276;2022-12-10T04:05:05;99.75;;;42.28;;
28335;SDS011;15592;53.656;7.276;2022-12-10T04:07:32;106.72;;;43.63;;
28335;SDS011;15592;53.656;7.276;2022-12-10T04:09:58;102.88;;;43.70;;
28335;SDS011;15592;53.656;7.276;2022-12-10T04:12:24;103.18;;;44.28;;
28335;SDS011;15592;53.656;7.276;2022-12-10T04:14:50;100.38;;;42.53;;
28335;SDS011;15592;53.656;7.276;2022-12-10T04:17:34;108.00;;;44.20;;
28335;SDS011;15592;53.656;7.276;2022-12-10T04:19:59;98.63;;;43.25;;
28335;SDS011;15592;53.656;7.276;2022-12-10T04:22:25;102.43;;;42.47;;
28335;SDS011;15592;53.656;7.276;2022-12-10T04:25:12;104.97;;;43.97;;
28335;SDS011;15592;53.656;7.276;2022-12-10T04:27:57;100.82;;;43.53;;
28335;SDS011;15592;53.656;7.276;2022-12-10T04:30:22;112.93;;;44.90;;
28335;SDS011;15592;53.656;7.276;2022-12-10T04:32:48;112.75;;;44.35;;
28335;SDS011;15592;53.656;7.276;2022-12-10T04:35:14;102.90;;;41.47;;
28335;SDS011;15592;53.656;7.276;2022-12-10T04:37:40;103.65;;;44.10;;
28335;SDS011;15592;53.656;7.276;2022-12-10T04:40:05;96.35;;;42.17;;
28335;SDS011;15592;53.656;7.276;2022-12-10T04:42:32;105.10;;;44.97;;
28335;SDS011;15592;53.656;7.276;2022-12-10T04:44:57;103.60;;;45.40;;
28335;SDS011;15592;53.656;7.276;2022-12-10T04:47:23;110.00;;;46.33;;
28335;SDS011;15592;53.656;7.276;2022-12-10T04:49:49;112.00;;;47.33;;
28335;SDS011;15592;53.656;7.276;2022-12-10T04:52:15;115.00;;;46.95;;
28335;SDS011;15592;53.656;7.276;2022-12-10T04:54:43;110.75;;;47.25;;
28335;SDS011;15592;53.656;7.276;2022-12-10T04:57:09;114.07;;;47.17;;
28335;SDS011;15592;53.656;7.276;2022-12-10T04:59:36;112.55;;;45.90;;
28335;SDS011;15592;53.656;7.276;2022-12-10T05:02:02;120.78;;;48.78;;
28335;SDS011;15592;53.656;7.276;2022-12-10T05:04:28;114.10;;;46.70;;
28335;SDS011;15592;53.656;7.276;2022-12-10T05:06:54;116.45;;;48.13;;
28335;SDS011;15592;53.656;7.276;2022-12-10T05:09:20;112.60;;;47.33;;
28335;SDS011;15592;53.656;7.276;2022-12-10T05:11:45;121.75;;;47.38;;
28335;SDS011;15592;53.656;7.276;2022-12-10T05:14:12;118.25;;;47.33;;
28335;SDS011;15592;53.656;7.276;2022-12-10T05:16:39;114.28;;;47.72;;
28335;SDS011;15592;53.656;7.276;2022-12-10T05:19:05;109.82;;;47.72;;
28335;SDS011;15592;53.656;7.276;2022-12-10T05:21:30;117.47;;;47.10;;
28335;SDS011;15592;53.656;7.276;2022-12-10T05:24:15;120.53;;;48.22;;
28335;SDS011;15592;53.656;7.276;2022-12-10T05:26:43;115.93;;;48.75;;
28335;SDS011;15592;53.656;7.276;2022-12-10T05:29:10;114.32;;;47.40;;
28335;SDS011;15592;53.656;7.276;2022-12-10T05:31:37;124.07;;;48.78;;
28335;SDS011;15592;53.656;7.276;2022-12-10T05:34:03;120.00;;;49.22;;
28335;SDS011;15592;53.656;7.276;2022-12-10T05:36:30;124.28;;;49.78;;
28335;SDS011;15592;53.656;7.276;2022-12-10T05:38:56;121.43;;;49.15;;
28335;SDS011;15592;53.656;7.276;2022-12-10T05:41:25;110.63;;;46.72;;
28335;SDS011;15592;53.656;7.276;2022-12-10T05:43:53;124.90;;;49.00;;
28335;SDS011;15592;53.656;7.276;2022-12-10T05:46:21;120.93;;;49.03;;
28335;SDS011;15592;53.656;7.276;2022-12-10T05:48:54;122.18;;;49.33;;
28335;SDS011;15592;53.656;7.276;2022-12-10T05:51:21;116.45;;;47.60;;
28335;SDS011;15592;53.656;7.276;2022-12-10T05:53:48;120.28;;;50.67;;
28335;SDS011;15592;53.656;7.276;2022-12-10T05:56:16;124.63;;;51.13;;
28335;SDS011;15592;53.656;7.276;2022-12-10T05:58:45;134.65;;;53.13;;
28335;SDS011;15592;53.656;7.276;2022-12-10T06:01:14;132.90;;;50.83;;
28335;SDS011;15592;53.656;7.276;2022-12-10T06:03:41;129.70;;;50.25;;
28335;SDS011;15592;53.656;7.276;2022-12-10T06:06:08;126.18;;;50.53;;
28335;SDS011;15592;53.656;7.276;2022-12-10T06:08:35;127.53;;;51.00;;
28335;SDS011;15592;53.656;7.276;2022-12-10T06:11:02;127.68;;;50.67;;
28335;SDS011;15592;53.656;7.276;2022-12-10T06:13:32;129.57;;;51.28;;
28335;SDS011;15592;53.656;7.276;2022-12-10T06:15:57;127.65;;;50.35;;
28335;SDS011;15592;53.656;7.276;2022-12-10T06:18:23;130.50;;;52.15;;
28335;SDS011;15592;53.656;7.276;2022-12-10T06:20:49;129.23;;;52.40;;
28335;SDS011;15592;53.656;7.276;2022-12-10T06:23:14;128.75;;;51.35;;
28335;SDS011;15592;53.656;7.276;2022-12-10T06:25:40;124.45;;;50.40;;
28335;SDS011;15592;53.656;7.276;2022-12-10T06:28:06;126.47;;;51.47;;
28335;SDS011;15592;53.656;7.276;2022-12-10T06:30:33;132.30;;;52.03;;
28335;SDS011;15592;53.656;7.276;2022-12-10T06:32:59;133.60;;;50.65;;
28335;SDS011;15592;53.656;7.276;2022-12-10T06:35:25;134.77;;;51.53;;
28335;SDS011;15592;53.656;7.276;2022-12-10T06:37:51;122.18;;;49.17;;
28335;SDS011;15592;53.656;7.276;2022-12-10T06:40:17;130.52;;;52.17;;
28335;SDS011;15592;53.656;7.276;2022-12-10T06:42:43;139.35;;;53.88;;
28335;SDS011;15592;53.656;7.276;2022-12-10T06:45:09;139.52;;;53.83;;
28335;SDS011;15592;53.656;7.276;2022-12-10T06:47:35;136.10;;;52.38;;
28335;SDS011;15592;53.656;7.276;2022-12-10T06:50:01;143.85;;;54.95;;
28335;SDS011;15592;53.656;7.276;2022-12-10T06:52:27;138.02;;;52.85;;
28335;SDS011;15592;53.656;7.276;2022-12-10T06:54:52;136.68;;;52.65;;
28335;SDS011;15592;53.656;7.276;2022-12-10T06:57:20;144.68;;;52.67;;
28335;SDS011;15592;53.656;7.276;2022-12-10T06:59:46;141.57;;;53.35;;
28335;SDS011;15592;53.656;7.276;2022-12-10T07:02:12;146.25;;;54.10;;
28335;SDS011;15592;53.656;7.276;2022-12-10T07:04:38;142.63;;;54.35;;
28335;SDS011;15592;53.656;7.276;2022-12-10T07:07:04;147.20;;;54.47;;
28335;SDS011;15592;53.656;7.276;2022-12-10T07:09:31;148.45;;;55.45;;
28335;SDS011;15592;53.656;7.276;2022-12-10T07:11:57;150.52;;;55.03;;
28335;SDS011;15592;53.656;7.276;2022-12-10T07:14:23;154.98;;;56.20;;
28335;SDS011;15592;53.656;7.276;2022-12-10T07:16:49;157.70;;;56.53;;
28335;SDS011;15592;53.656;7.276;2022-12-10T07:19:14;157.95;;;59.78;;
28335;SDS011;15592;53.656;7.276;2022-12-10T07:21:41;139.85;;;55.33;;
28335;SDS011;15592;53.656;7.276;2022-12-10T07:24:11;160.48;;;59.03;;
28335;SDS011;15592;53.656;7.276;2022-12-10T07:26:41;157.10;;;56.53;;
28335;SDS011;15592;53.656;7.276;2022-12-10T07:29:09;153.60;;;56.97;;
28335;SDS011;15592;53.656;7.276;2022-12-10T07:31:41;157.30;;;57.67;;
28335;SDS011;15592;53.656;7.276;2022-12-10T07:34:07;158.85;;;55.78;;
28335;SDS011;15592;53.656;7.276;2022-12-10T07:36:34;156.55;;;55.80;;
28335;SDS011;15592;53.656;7.276;2022-12-10T07:39:00;155.27;;;56.95;;
28335;SDS011;15592;53.656;7.276;2022-12-10T07:41:25;162.23;;;58.95;;
28335;SDS011;15592;53.656;7.276;2022-12-10T07:43:51;166.40;;;58.03;;
28335;SDS011;15592;53.656;7.276;2022-12-10T07:46:22;168.77;;;60.03;;
28335;SDS011;15592;53.656;7.276;2022-12-10T07:48:52;162.25;;;59.65;;
28335;SDS011;15592;53.656;7.276;2022-12-10T07:51:19;164.40;;;58.45;;
28335;SDS011;15592;53.656;7.276;2022-12-10T07:53:46;155.75;;;59.13;;
28335;SDS011;15592;53.656;7.276;2022-12-10T07:56:13;159.75;;;56.78;;
28335;SDS011;15592;53.656;7.276;2022-12-10T07:58:42;171.63;;;59.03;;
28335;SDS011;15592;53.656;7.276;2022-12-10T08:01:10;151.05;;;56.72;;
28335;SDS011;15592;53.656;7.276;2022-12-10T08:03:38;158.65;;;58.33;;
28335;SDS011;15592;53.656;7.276;2022-12-10T08:06:05;166.45;;;59.00;;
28335;SDS011;15592;53.656;7.276;2022-12-10T08:08:33;163.68;;;55.97;;
28335;SDS011;15592;53.656;7.276;2022-12-10T08:11:00;176.88;;;60.75;;
28335;SDS011;15592;53.656;7.276;2022-12-10T08:13:27;161.27;;;57.58;;
28335;SDS011;15592;53.656;7.276;2022-12-10T08:15:53;156.25;;;55.50;;
28335;SDS011;15592;53.656;7.276;2022-12-10T08:18:20;161.18;;;56.35;;
28335;SDS011;15592;53.656;7.276;2022-12-10T08:20:46;152.70;;;54.90;;
28335;SDS011;15592;53.656;7.276;2022-12-10T08:23:11;162.38;;;57.60;;
28335;SDS011;15592;53.656;7.276;2022-12-10T08:25:37;156.35;;;55.88;;
28335;SDS011;15592;53.656;7.276;2022-12-10T08:28:02;146.75;;;56.60;;
28335;SDS011;15592;53.656;7.276;2022-12-10T08:30:29;155.70;;;57.83;;
28335;SDS011;15592;53.656;7.276;2022-12-10T08:32:55;150.50;;;56.85;;
28335;SDS011;15592;53.656;7.276;2022-12-10T08:35:20;151.63;;;56.15;;
28335;SDS011;15592;53.656;7.276;2022-12-10T08:37:46;140.85;;;53.05;;
28335;SDS011;15592;53.656;7.276;2022-12-10T08:40:12;140.82;;;54.08;;
28335;SDS011;15592;53.656;7.276;2022-12-10T08:42:38;145.20;;;54.28;;
28335;SDS011;15592;53.656;7.276;2022-12-10T08:45:04;128.43;;;50.65;;
28335;SDS011;15592;53.656;7.276;2022-12-10T08:47:30;136.82;;;52.08;;
28335;SDS011;15592;53.656;7.276;2022-12-10T08:49:56;127.47;;;48.75;;
28335;SDS011;15592;53.656;7.276;2022-12-10T08:52:21;130.68;;;48.97;;
28335;SDS011;15592;53.656;7.276;2022-12-10T08:54:47;127.35;;;49.67;;
28335;SDS011;15592;53.656;7.276;2022-12-10T08:57:13;136.63;;;52.65;;
28335;SDS011;15592;53.656;7.276;2022-12-10T08:59:38;141.98;;;53.38;;
28335;SDS011;15592;53.656;7.276;2022-12-10T09:02:04;125.38;;;51.97;;
28335;SDS011;15592;53.656;7.276;2022-12-10T09:04:30;132.10;;;51.97;;
28335;SDS011;15592;53.656;7.276;2022-12-10T09:06:55;138.25;;;50.60;;
28335;SDS011;15592;53.656;7.276;2022-12-10T09:09:21;133.63;;;50.75;;
28335;SDS011;15592;53.656;7.276;2022-12-10T09:11:47;137.43;;;52.95;;
28335;SDS011;15592;53.656;7.276;2022-12-10T09:14:12;131.23;;;51.38;;
28335;SDS011;15592;53.656;7.276;2022-12-10T09:16:38;141.27;;;52.10;;
28335;SDS011;15592;53.656;7.276;2022-12-10T09:19:04;131.07;;;51.55;;
28335;SDS011;15592;53.656;7.276;2022-12-10T09:21:30;126.38;;;50.55;;
28335;SDS011;15592;53.656;7.276;2022-12-10T09:23:56;128.00;;;49.80;;
28335;SDS011;15592;53.656;7.276;2022-12-10T09:26:22;128.90;;;51.28;;
28335;SDS011;15592;53.656;7.276;2022-12-10T09:28:48;132.85;;;52.97;;
28335;SDS011;15592;53.656;7.276;2022-12-10T09:31:15;130.18;;;49.63;;
28335;SDS011;15592;53.656;7.276;2022-12-10T09:33:43;135.35;;;52.67;;
28335;SDS011;15592;53.656;7.276;2022-12-10T09:36:10;134.07;;;51.47;;
28335;SDS011;15592;53.656;7.276;2022-12-10T09:38:37;138.02;;;52.95;;
28335;SDS011;15592;53.656;7.276;2022-12-10T09:43:47;132.55;;;51.20;;
28335;SDS011;15592;53.656;7.276;2022-12-10T09:51:47;119.63;;;49.08;;
28335;SDS011;15592;53.656;7.276;2022-12-10T09:54:38;116.15;;;47.38;;
28335;SDS011;15592;53.656;7.276;2022-12-10T09:57:03;120.97;;;49.67;;
28335;SDS011;15592;53.656;7.276;2022-12-10T09:59:31;121.30;;;49.00;;
28335;SDS011;15592;53.656;7.276;2022-12-10T10:04:56;126.80;;;52.03;;
28335;SDS011;15592;53.656;7.276;2022-12-10T10:07:31;120.10;;;48.10;;
28335;SDS011;15592;53.656;7.276;2022-12-10T10:10:18;123.22;;;49.35;;
28335;SDS011;15592;53.656;7.276;2022-12-10T10:12:52;127.22;;;50.83;;
28335;SDS011;15592;53.656;7.276;2022-12-10T10:15:25;135.40;;;52.38;;
28335;SDS011;15592;53.656;7.276;2022-12-10T10:17:56;125.47;;;50.17;;
28335;SDS011;15592;53.656;7.276;2022-12-10T10:20:24;125.82;;;52.72;;
28335;SDS011;15592;53.656;7.276;2022-12-10T10:22:50;120.88;;;49.30;;
28335;SDS011;15592;53.656;7.276;2022-12-10T10:25:16;128.43;;;51.33;;
28335;SDS011;15592;53.656;7.276;2022-12-10T10:27:43;122.82;;;51.60;;
28335;SDS011;15592;53.656;7.276;2022-12-10T10:30:13;126.30;;;50.58;;
28335;SDS011;15592;53.656;7.276;2022-12-10T10:35:18;134.18;;;50.60;;
28335;SDS011;15592;53.656;7.276;2022-12-10T10:37:47;111.63;;;47.97;;
28335;SDS011;15592;53.656;7.276;2022-12-10T10:42:51;133.77;;;51.10;;
28335;SDS011;15592;53.656;7.276;2022-12-10T10:45:39;123.10;;;51.97;;
28335;SDS011;15592;53.656;7.276;2022-12-10T10:48:14;122.22;;;50.40;;
28335;SDS011;15592;53.656;7.276;2022-12-10T10:50:50;113.57;;;49.92;;
28335;SDS011;15592;53.656;7.276;2022-12-10T10:56:00;117.80;;;50.60;;
28335;SDS011;15592;53.656;7.276;2022-12-10T10:58:36;113.60;;;48.80;;
28335;SDS011;15592;53.656;7.276;2022-12-10T11:01:11;117.60;;;49.47;;
28335;SDS011;15592;53.656;7.276;2022-12-10T11:03:36;122.60;;;50.63;;
28335;SDS011;15592;53.656;7.276;2022-12-10T11:06:12;129.63;;;53.00;;
28335;SDS011;15592;53.656;7.276;2022-12-10T11:08:38;118.35;;;49.75;;
28335;SDS011;15592;53.656;7.276;2022-12-10T11:11:20;127.95;;;51.90;;
28335;SDS011;15592;53.656;7.276;2022-12-10T11:14:12;126.78;;;52.17;;
28335;SDS011;15592;53.656;7.276;2022-12-10T11:17:40;123.43;;;51.65;;
28335;SDS011;15592;53.656;7.276;2022-12-10T11:19:59;123.22;;;52.25;;
28335;SDS011;15592;53.656;7.276;2022-12-10T11:22:30;111.03;;;49.05;;
28335;SDS011;15592;53.656;7.276;2022-12-10T11:24:58;127.38;;;52.05;;
28335;SDS011;15592;53.656;7.276;2022-12-10T11:30:23;121.72;;;51.33;;
28335;SDS011;15592;53.656;7.276;2022-12-10T11:39:44;127.82;;;52.25;;
28335;SDS011;15592;53.656;7.276;2022-12-10T11:41:48;128.52;;;51.00;;
28335;SDS011;15592;53.656;7.276;2022-12-10T11:44:26;123.28;;;53.05;;
28335;SDS011;15592;53.656;7.276;2022-12-10T11:47:06;120.03;;;49.95;;
28335;SDS011;15592;53.656;7.276;2022-12-10T12:00:35;124.70;;;51.72;;
28335;SDS011;15592;53.656;7.276;2022-12-10T12:05:48;128.70;;;53.67;;
28335;SDS011;15592;53.656;7.276;2022-12-10T12:08:40;137.32;;;52.90;;
28335;SDS011;15592;53.656;7.276;2022-12-10T12:17:02;135.70;;;53.17;;
28335;SDS011;15592;53.656;7.276;2022-12-10T12:19:39;134.38;;;52.28;;
28335;SDS011;15592;53.656;7.276;2022-12-10T12:22:14;135.75;;;54.72;;
28335;SDS011;15592;53.656;7.276;2022-12-10T12:24:43;143.38;;;54.13;;
28335;SDS011;15592;53.656;7.276;2022-12-10T12:29:51;133.48;;;52.58;;
28335;SDS011;15592;53.656;7.276;2022-12-10T12:42:04;134.02;;;53.42;;
28335;SDS011;15592;53.656;7.276;2022-12-10T12:44:12;138.45;;;52.45;;
28335;SDS011;15592;53.656;7.276;2022-12-10T12:46:47;137.13;;;56.22;;
28335;SDS011;15592;53.656;7.276;2022-12-10T12:49:24;139.05;;;56.25;;
28335;SDS011;15592;53.656;7.276;2022-12-10T12:52:02;131.15;;;54.78;;
28335;SDS011;15592;53.656;7.276;2022-12-10T12:54:34;151.93;;;57.47;;
28335;SDS011;15592;53.656;7.276;2022-12-10T13:05:13;139.98;;;56.78;;
28335;SDS011;15592;53.656;7.276;2022-12-10T13:07:41;137.73;;;55.67;;
28335;SDS011;15592;53.656;7.276;2022-12-10T13:15:48;136.20;;;55.65;;
28335;SDS011;15592;53.656;7.276;2022-12-10T13:23:51;138.33;;;57.57;;
28335;SDS011;15592;53.656;7.276;2022-12-10T13:26:28;141.20;;;56.63;;
28335;SDS011;15592;53.656;7.276;2022-12-10T13:28:55;140.15;;;55.90;;
28335;SDS011;15592;53.656;7.276;2022-12-10T13:31:37;135.52;;;57.10;;
28335;SDS011;15592;53.656;7.276;2022-12-10T13:34:10;135.63;;;55.88;;
28335;SDS011;15592;53.656;7.276;2022-12-10T13:39:21;130.35;;;51.65;;
28335;SDS011;15592;53.656;7.276;2022-12-10T13:50:45;149.25;;;57.50;;
28335;SDS011;15592;53.656;7.276;2022-12-10T13:58:27;135.18;;;55.17;;
28335;SDS011;15592;53.656;7.276;2022-12-10T14:04:13;144.63;;;59.05;;
28335;SDS011;15592;53.656;7.276;2022-12-10T14:06:50;144.75;;;57.28;;
28335;SDS011;15592;53.656;7.276;2022-12-10T14:09:21;142.10;;;57.05;;
28335;SDS011;15592;53.656;7.276;2022-12-10T14:14:45;140.35;;;56.47;;
28335;SDS011;15592;53.656;7.276;2022-12-10T14:17:16;150.02;;;58.25;;
28335;SDS011;15592;53.656;7.276;2022-12-10T14:19:45;140.98;;;59.13;;
28335;SDS011;15592;53.656;7.276;2022-12-10T14:22:54;139.85;;;57.33;;
28335;SDS011;15592;53.656;7.276;2022-12-10T14:25:03;139.15;;;58.17;;
28335;SDS011;15592;53.656;7.276;2022-12-10T14:27:32;149.90;;;57.92;;
28335;SDS011;15592;53.656;7.276;2022-12-10T14:30:02;147.23;;;58.08;;
28335;SDS011;15592;53.656;7.276;2022-12-10T14:32:33;135.50;;;54.47;;
28335;SDS011;15592;53.656;7.276;2022-12-10T14:35:01;142.80;;;55.75;;
28335;SDS011;15592;53.656;7.276;2022-12-10T14:37:30;136.25;;;55.00;;
28335;SDS011;15592;53.656;7.276;2022-12-10T14:40:00;139.80;;;54.63;;
28335;SDS011;15592;53.656;7.276;2022-12-10T14:42:26;144.32;;;58.08;;
28335;SDS011;15592;53.656;7.276;2022-12-10T14:44:59;140.57;;;55.35;;
28335;SDS011;15592;53.656;7.276;2022-12-10T14:47:27;137.23;;;56.75;;
28335;SDS011;15592;53.656;7.276;2022-12-10T14:50:00;147.38;;;59.42;;
28335;SDS011;15592;53.656;7.276;2022-12-10T14:52:33;150.88;;;58.60;;
28335;SDS011;15592;53.656;7.276;2022-12-10T14:55:04;140.20;;;56.00;;
28335;SDS011;15592;53.656;7.276;2022-12-10T14:57:34;149.02;;;58.75;;
28335;SDS011;15592;53.656;7.276;2022-12-10T15:00:06;155.55;;;61.60;;
28335;SDS011;15592;53.656;7.276;2022-12-10T15:02:38;147.10;;;58.78;;
28335;SDS011;15592;53.656;7.276;2022-12-10T15:05:27;141.88;;;58.85;;
28335;SDS011;15592;53.656;7.276;2022-12-10T15:10:37;142.80;;;57.80;;
28335;SDS011;15592;53.656;7.276;2022-12-10T15:13:04;146.68;;;59.03;;
28335;SDS011;15592;53.656;7.276;2022-12-10T15:15:35;158.65;;;62.30;;
28335;SDS011;15592;53.656;7.276;2022-12-10T15:28:51;137.30;;;55.58;;
28335;SDS011;15592;53.656;7.276;2022-12-10T15:33:57;151.57;;;60.65;;
28335;SDS011;15592;53.656;7.276;2022-12-10T15:39:12;147.60;;;57.38;;
28335;SDS011;15592;53.656;7.276;2022-12-10T15:41:57;145.18;;;57.88;;
28335;SDS011;15592;53.656;7.276;2022-12-10T15:44:31;142.70;;;58.17;;
28335;SDS011;15592;53.656;7.276;2022-12-10T15:49:48;139.75;;;58.25;;
28335;SDS011;15592;53.656;7.276;2022-12-10T15:52:15;142.18;;;58.42;;
28335;SDS011;15592;53.656;7.276;2022-12-10T15:54:43;142.23;;;57.47;;
28335;SDS011;15592;53.656;7.276;2022-12-10T15:57:15;135.98;;;56.17;;
28335;SDS011;15592;53.656;7.276;2022-12-10T15:59:42;138.57;;;54.70;;
28335;SDS011;15592;53.656;7.276;2022-12-10T16:07:35;110.57;;;48.70;;
28335;SDS011;15592;53.656;7.276;2022-12-10T16:10:04;121.50;;;51.53;;
28335;SDS011;15592;53.656;7.276;2022-12-10T16:12:31;143.63;;;53.33;;
28335;SDS011;15592;53.656;7.276;2022-12-10T16:14:58;153.43;;;57.47;;
28335;SDS011;15592;53.656;7.276;2022-12-10T16:17:26;146.35;;;56.58;;
28335;SDS011;15592;53.656;7.276;2022-12-10T16:19:53;148.13;;;58.50;;
28335;SDS011;15592;53.656;7.276;2022-12-10T16:22:23;141.30;;;55.15;;
28335;SDS011;15592;53.656;7.276;2022-12-10T16:24:48;145.23;;;56.28;;
28335;SDS011;15592;53.656;7.276;2022-12-10T16:27:14;146.60;;;55.88;;
28335;SDS011;15592;53.656;7.276;2022-12-10T16:29:41;147.65;;;57.88;;
28335;SDS011;15592;53.656;7.276;2022-12-10T16:32:11;151.18;;;58.95;;
28335;SDS011;15592;53.656;7.276;2022-12-10T16:34:37;156.60;;;60.17;;
28335;SDS011;15592;53.656;7.276;2022-12-10T16:37:04;150.30;;;58.60;;
28335;SDS011;15592;53.656;7.276;2022-12-10T16:39:31;146.77;;;57.25;;
28335;SDS011;15592;53.656;7.276;2022-12-10T16:41:57;149.90;;;57.60;;
28335;SDS011;15592;53.656;7.276;2022-12-10T16:44:23;154.35;;;57.10;;
28335;SDS011;15592;53.656;7.276;2022-12-10T16:46:48;153.70;;;56.53;;
28335;SDS011;15592;53.656;7.276;2022-12-10T16:49:14;154.77;;;58.00;;
28335;SDS011;15592;53.656;7.276;2022-12-10T16:51:40;148.48;;;55.28;;